Time;durP1;ratioP1;P1;durP2;ratioP2;P2;SDS_P1;SDS_P2;PMS_P1;PMS_P2;Temp;Humidity;BMP_temperature;BMP_pressure;BME280_temperature;BME280_humidity;BME280_pressure;Samples;Min_cycle;Max_cycle;Signal;HPM_P1;HPM_P2
2022/05/15 00:01:48;;;;;;;10.97;5.30;;;;;;;;;;4988856;28;20218;-72
2022/05/15 00:04:14;;;;;;;8.53;5.00;;;;;;;;;;4980922;28;20249;-72
2022/05/15 00:06:40;;;;;;;6.90;4.83;;;;;;;;;;4982836;28;26165;-73
2022/05/15 00:09:06;;;;;;;8.37;4.93;;;;;;;;;;4981594;28;20197;-72
2022/05/15 00:11:32;;;;;;;7.40;4.93;;;;;;;;;;4984535;28;20210;-73
2022/05/15 00:13:58;;;;;;;5.70;4.60;;;;;;;;;;4985174;28;20327;-72
2022/05/15 00:16:24;;;;;;;8.03;4.97;;;;;;;;;;4979733;28;20264;-72
2022/05/15 00:18:50;;;;;;;9.57;5.27;;;;;;;;;;4984623;28;20186;-72
2022/05/15 00:21:16;;;;;;;7.63;5.10;;;;;;;;;;4983574;28;21276;-72
2022/05/15 00:23:43;;;;;;;7.47;5.13;;;;;;;;;;4987767;28;22285;-72
2022/05/15 00:26:09;;;;;;;10.13;5.03;;;;;;;;;;4981393;28;20197;-72
2022/05/15 00:28:34;;;;;;;6.37;5.00;;;;;;;;;;4971757;28;20185;-72
2022/05/15 00:31:00;;;;;;;8.23;4.77;;;;;;;;;;4976658;28;20190;-71
2022/05/15 00:33:27;;;;;;;9.70;5.10;;;;;;;;;;4982976;28;20660;-72
2022/05/15 00:35:53;;;;;;;6.17;4.47;;;;;;;;;;4976709;28;20181;-72
2022/05/15 00:38:19;;;;;;;8.70;5.70;;;;;;;;;;4985547;28;20272;-72
2022/05/15 00:40:45;;;;;;;10.07;5.50;;;;;;;;;;4983602;28;20191;-72
2022/05/15 00:43:11;;;;;;;8.00;5.57;;;;;;;;;;4985501;28;20285;-72
2022/05/15 00:45:37;;;;;;;8.30;5.10;;;;;;;;;;4986551;28;20300;-72
2022/05/15 00:48:04;;;;;;;5.10;4.60;;;;;;;;;;4988412;28;20190;-72
2022/05/15 00:50:31;;;;;;;7.10;4.80;;;;;;;;;;4987441;28;20718;-72
2022/05/15 00:52:58;;;;;;;9.53;6.13;;;;;;;;;;4985702;28;20300;-72
2022/05/15 00:55:25;;;;;;;8.77;5.63;;;;;;;;;;4976876;28;20190;-72
2022/05/15 00:57:53;;;;;;;7.73;5.60;;;;;;;;;;4977918;28;20202;-72
2022/05/15 01:00:21;;;;;;;8.13;5.47;;;;;;;;;;4980717;28;20194;-72
2022/05/15 01:02:48;;;;;;;6.20;5.40;;;;;;;;;;4971478;28;20848;-72
2022/05/15 01:05:14;;;;;;;9.27;5.37;;;;;;;;;;4976531;28;20249;-72
2022/05/15 01:07:40;;;;;;;7.67;6.37;;;;;;;;;;4999040;28;20198;-72
2022/05/15 01:10:07;;;;;;;11.37;5.97;;;;;;;;;;4981633;28;20197;-72
2022/05/15 01:12:33;;;;;;;8.87;5.27;;;;;;;;;;4984466;28;20218;-72
2022/05/15 01:14:59;;;;;;;8.87;5.47;;;;;;;;;;4981767;28;20182;-72
2022/05/15 01:17:25;;;;;;;8.67;5.87;;;;;;;;;;4986385;28;20190;-72
2022/05/15 01:19:51;;;;;;;10.13;5.40;;;;;;;;;;4982765;28;20225;-72
2022/05/15 01:22:17;;;;;;;7.47;5.27;;;;;;;;;;4989580;28;20666;-72
2022/05/15 01:24:43;;;;;;;6.63;5.53;;;;;;;;;;4982329;28;20190;-72
2022/05/15 01:27:10;;;;;;;9.53;5.40;;;;;;;;;;4980989;28;20185;-72
2022/05/15 01:29:38;;;;;;;7.97;5.10;;;;;;;;;;4972676;28;20187;-72
2022/05/15 01:32:04;;;;;;;7.73;5.67;;;;;;;;;;4990323;28;20222;-72
2022/05/15 01:34:30;;;;;;;7.63;5.30;;;;;;;;;;4991769;28;20209;-72
2022/05/15 01:36:57;;;;;;;7.03;6.00;;;;;;;;;;4978072;28;21373;-72
2022/05/15 01:39:23;;;;;;;8.03;5.17;;;;;;;;;;4989159;28;20647;-72
2022/05/15 01:41:49;;;;;;;6.33;5.50;;;;;;;;;;4980673;28;20228;-72
2022/05/15 01:44:15;;;;;;;8.93;5.37;;;;;;;;;;4983878;28;20276;-72
2022/05/15 01:46:41;;;;;;;7.03;5.33;;;;;;;;;;4978087;28;20212;-72
2022/05/15 01:49:07;;;;;;;9.33;5.87;;;;;;;;;;4982001;28;20197;-72
2022/05/15 01:51:33;;;;;;;6.83;5.63;;;;;;;;;;4983292;28;20210;-72
2022/05/15 01:54:00;;;;;;;7.13;5.40;;;;;;;;;;4982125;28;20198;-72
2022/05/15 01:56:26;;;;;;;7.93;5.80;;;;;;;;;;4982251;28;20197;-73
2022/05/15 01:58:52;;;;;;;8.67;5.63;;;;;;;;;;4978256;28;20186;-72
2022/05/15 02:01:17;;;;;;;7.63;5.57;;;;;;;;;;4978804;28;20217;-73
2022/05/15 02:03:43;;;;;;;9.67;5.93;;;;;;;;;;4981771;28;20252;-73
2022/05/15 02:06:09;;;;;;;7.77;5.50;;;;;;;;;;4970168;28;20887;-73
2022/05/15 02:08:35;;;;;;;8.67;6.13;;;;;;;;;;4982620;28;20189;-72
2022/05/15 02:11:01;;;;;;;7.77;6.07;;;;;;;;;;4985072;28;21086;-72
2022/05/15 02:13:27;;;;;;;9.47;5.93;;;;;;;;;;4979681;28;20194;-72
2022/05/15 02:15:53;;;;;;;7.10;6.07;;;;;;;;;;4967793;28;20189;-72
2022/05/15 02:18:19;;;;;;;6.17;4.90;;;;;;;;;;4982947;28;20202;-72
2022/05/15 02:20:45;;;;;;;10.37;5.87;;;;;;;;;;4991065;28;20181;-72
2022/05/15 02:23:11;;;;;;;7.27;5.70;;;;;;;;;;4986872;28;20186;-72
2022/05/15 02:25:38;;;;;;;8.93;5.40;;;;;;;;;;4993372;28;20199;-72
2022/05/15 02:28:04;;;;;;;6.80;5.90;;;;;;;;;;4992826;28;20280;-72
2022/05/15 02:30:30;;;;;;;8.27;5.90;;;;;;;;;;4992462;28;20206;-72
2022/05/15 02:32:56;;;;;;;6.73;5.43;;;;;;;;;;4988726;28;20577;-72
2022/05/15 02:35:22;;;;;;;6.47;5.83;;;;;;;;;;4985487;28;20264;-71
2022/05/15 02:37:48;;;;;;;10.03;5.27;;;;;;;;;;4979902;28;21087;-72
2022/05/15 02:40:15;;;;;;;8.43;5.50;;;;;;;;;;4984764;28;20190;-72
2022/05/15 02:42:41;;;;;;;7.77;6.00;;;;;;;;;;4981824;28;20201;-72
2022/05/15 02:45:07;;;;;;;7.43;5.90;;;;;;;;;;4982798;28;20194;-71
2022/05/15 02:47:33;;;;;;;8.80;6.13;;;;;;;;;;4979365;28;20240;-72
2022/05/15 02:52:44;;;;;;;6.60;5.87;;;;;;;;;;4980423;28;21148;-72
2022/05/15 02:55:10;;;;;;;8.10;6.37;;;;;;;;;;4985651;28;20891;-72
2022/05/15 02:57:37;;;;;;;10.03;6.30;;;;;;;;;;4984415;28;20194;-72
2022/05/15 03:00:04;;;;;;;9.63;6.20;;;;;;;;;;4976408;28;20209;-72
2022/05/15 03:02:30;;;;;;;8.10;6.27;;;;;;;;;;4987314;28;20191;-72
2022/05/15 03:04:56;;;;;;;8.30;6.90;;;;;;;;;;4984008;28;20322;-72
2022/05/15 03:07:21;;;;;;;11.00;6.77;;;;;;;;;;4984778;28;20197;-72
2022/05/15 03:09:47;;;;;;;7.90;6.70;;;;;;;;;;4979452;28;20205;-72
2022/05/15 03:12:13;;;;;;;8.27;6.13;;;;;;;;;;4989561;28;20217;-72
2022/05/15 03:14:39;;;;;;;10.13;6.27;;;;;;;;;;4983008;28;20190;-72
2022/05/15 03:17:05;;;;;;;7.37;6.57;;;;;;;;;;4980036;28;20824;-72
2022/05/15 03:19:31;;;;;;;7.13;6.23;;;;;;;;;;4979014;28;20304;-72
2022/05/15 03:21:57;;;;;;;9.17;7.00;;;;;;;;;;4986836;28;20193;-72
2022/05/15 03:24:23;;;;;;;8.57;6.30;;;;;;;;;;4982411;28;20207;-72
2022/05/15 03:26:49;;;;;;;8.53;6.43;;;;;;;;;;4984537;28;20220;-73
2022/05/15 03:29:15;;;;;;;8.17;6.33;;;;;;;;;;4988511;28;20194;-72
2022/05/15 03:31:41;;;;;;;8.07;6.63;;;;;;;;;;4982437;28;20718;-72
2022/05/15 03:34:08;;;;;;;10.50;6.70;;;;;;;;;;4983032;28;20197;-71
2022/05/15 03:36:34;;;;;;;7.40;6.57;;;;;;;;;;4983477;28;20225;-72
2022/05/15 03:39:00;;;;;;;7.33;6.53;;;;;;;;;;4969102;28;20682;-72
2022/05/15 03:41:27;;;;;;;7.23;6.40;;;;;;;;;;4985559;28;20246;-71
2022/05/15 03:43:53;;;;;;;8.60;6.80;;;;;;;;;;4988237;28;20200;-72
2022/05/15 03:46:19;;;;;;;8.57;6.90;;;;;;;;;;4981237;28;20193;-72
2022/05/15 03:48:45;;;;;;;10.00;6.67;;;;;;;;;;4986462;28;20608;-72
2022/05/15 03:51:12;;;;;;;9.03;7.03;;;;;;;;;;4967143;28;21248;-71
2022/05/15 03:53:38;;;;;;;9.17;6.63;;;;;;;;;;4987070;28;20205;-71
2022/05/15 03:56:05;;;;;;;8.27;6.30;;;;;;;;;;4977744;28;20212;-72
2022/05/15 03:58:31;;;;;;;11.77;6.63;;;;;;;;;;4987775;28;20214;-71
2022/05/15 04:00:57;;;;;;;7.77;6.37;;;;;;;;;;4982695;28;20236;-73
2022/05/15 04:03:23;;;;;;;10.30;6.60;;;;;;;;;;4985928;28;20255;-72
2022/05/15 04:05:49;;;;;;;9.97;7.00;;;;;;;;;;4980416;28;21867;-72
2022/05/15 04:08:15;;;;;;;11.37;7.23;;;;;;;;;;4984339;28;20324;-72
2022/05/15 04:10:41;;;;;;;7.33;6.63;;;;;;;;;;4985254;28;20259;-72
2022/05/15 04:13:07;;;;;;;9.67;6.87;;;;;;;;;;4962864;28;20217;-72
2022/05/15 04:15:33;;;;;;;10.37;6.90;;;;;;;;;;4989047;28;20190;-72
2022/05/15 04:17:59;;;;;;;6.90;6.20;;;;;;;;;;4971128;28;20185;-72
2022/05/15 04:20:26;;;;;;;9.00;7.00;;;;;;;;;;4952467;28;20544;-73
2022/05/15 04:22:52;;;;;;;9.57;6.80;;;;;;;;;;4986575;28;20186;-72
2022/05/15 04:25:18;;;;;;;8.67;7.10;;;;;;;;;;4975831;28;26235;-73
2022/05/15 04:27:44;;;;;;;9.30;7.00;;;;;;;;;;4987440;28;20194;-72
2022/05/15 04:30:11;;;;;;;10.87;6.27;;;;;;;;;;4990097;28;20212;-72
2022/05/15 04:32:37;;;;;;;9.53;6.90;;;;;;;;;;4985833;28;20209;-72
2022/05/15 04:35:03;;;;;;;7.33;6.30;;;;;;;;;;4985106;28;20182;-72
2022/05/15 04:37:29;;;;;;;9.43;6.43;;;;;;;;;;4974938;28;20196;-72
2022/05/15 04:39:55;;;;;;;8.57;6.40;;;;;;;;;;4988872;28;20185;-72
2022/05/15 04:42:21;;;;;;;9.63;6.63;;;;;;;;;;4980565;28;20240;-72
2022/05/15 04:44:48;;;;;;;9.03;6.23;;;;;;;;;;4983197;28;21217;-72
2022/05/15 04:47:14;;;;;;;11.03;6.20;;;;;;;;;;4981978;28;20690;-72
2022/05/15 04:49:40;;;;;;;9.83;7.03;;;;;;;;;;4983237;28;20276;-72
2022/05/15 04:52:06;;;;;;;8.13;6.70;;;;;;;;;;4976870;28;20241;-72
2022/05/15 04:54:32;;;;;;;9.67;7.27;;;;;;;;;;4982472;28;21226;-72
2022/05/15 04:56:57;;;;;;;13.77;7.50;;;;;;;;;;4979839;28;20198;-72
2022/05/15 04:59:23;;;;;;;8.40;6.50;;;;;;;;;;4982648;28;20194;-72
2022/05/15 05:01:49;;;;;;;10.37;7.33;;;;;;;;;;4974828;28;20194;-71
2022/05/15 05:04:16;;;;;;;11.33;7.17;;;;;;;;;;4968357;28;20255;-72
2022/05/15 05:06:42;;;;;;;11.50;7.40;;;;;;;;;;4988883;28;20729;-72
2022/05/15 05:09:08;;;;;;;11.20;6.93;;;;;;;;;;4983412;28;20236;-72
2022/05/15 05:11:34;;;;;;;12.07;7.10;;;;;;;;;;4977766;28;20216;-72
2022/05/15 05:14:00;;;;;;;11.17;6.63;;;;;;;;;;4987090;28;20677;-72
2022/05/15 05:16:25;;;;;;;10.33;6.70;;;;;;;;;;4979616;28;20178;-73
2022/05/15 05:18:52;;;;;;;10.67;6.60;;;;;;;;;;4976171;28;20210;-72
2022/05/15 05:21:18;;;;;;;12.43;6.67;;;;;;;;;;4983565;28;20197;-72
2022/05/15 05:23:44;;;;;;;8.83;6.53;;;;;;;;;;4983107;28;20193;-72
2022/05/15 05:26:10;;;;;;;9.93;6.57;;;;;;;;;;4982630;28;20201;-72
2022/05/15 05:28:36;;;;;;;11.00;6.70;;;;;;;;;;4981872;28;20826;-72
2022/05/15 05:31:02;;;;;;;9.30;6.43;;;;;;;;;;4984307;28;21989;-72
2022/05/15 05:33:28;;;;;;;7.87;6.33;;;;;;;;;;4982791;28;20182;-72
2022/05/15 05:35:54;;;;;;;8.57;6.90;;;;;;;;;;4983833;28;20190;-72
2022/05/15 05:38:20;;;;;;;10.77;6.67;;;;;;;;;;4981565;28;20265;-73
2022/05/15 05:40:46;;;;;;;9.03;7.03;;;;;;;;;;4982171;28;20256;-72
2022/05/15 05:43:12;;;;;;;8.77;5.90;;;;;;;;;;4978279;28;20213;-73
2022/05/15 05:45:38;;;;;;;8.43;6.23;;;;;;;;;;4987451;28;20284;-73
2022/05/15 05:48:04;;;;;;;8.30;6.20;;;;;;;;;;4983442;28;20996;-72
2022/05/15 05:50:30;;;;;;;8.97;6.17;;;;;;;;;;4980706;28;22556;-73
2022/05/15 05:52:57;;;;;;;8.73;6.33;;;;;;;;;;4978381;28;20608;-73
2022/05/15 05:55:23;;;;;;;7.03;6.07;;;;;;;;;;4980206;28;20801;-73
2022/05/15 05:57:50;;;;;;;9.00;5.80;;;;;;;;;;4978472;28;20194;-73
2022/05/15 06:00:17;;;;;;;9.10;6.50;;;;;;;;;;4983905;28;20182;-73
2022/05/15 06:02:43;;;;;;;9.27;5.90;;;;;;;;;;5009335;28;21264;-73
2022/05/15 06:05:09;;;;;;;8.40;6.10;;;;;;;;;;4991849;28;20234;-71
2022/05/15 06:07:37;;;;;;;7.53;6.03;;;;;;;;;;4986878;28;20189;-73
2022/05/15 06:10:03;;;;;;;10.30;5.57;;;;;;;;;;5000043;28;20182;-72
2022/05/15 06:12:29;;;;;;;8.53;5.60;;;;;;;;;;4988434;28;20703;-73
2022/05/15 06:14:55;;;;;;;10.63;5.67;;;;;;;;;;4988426;28;20186;-72
2022/05/15 06:17:21;;;;;;;10.03;5.57;;;;;;;;;;4993144;28;20183;-72
2022/05/15 06:19:47;;;;;;;7.03;5.63;;;;;;;;;;4989336;28;20267;-72
2022/05/15 06:22:13;;;;;;;7.73;5.97;;;;;;;;;;4988179;28;20550;-73
2022/05/15 06:24:40;;;;;;;8.87;5.60;;;;;;;;;;4991654;28;20198;-73
2022/05/15 06:27:06;;;;;;;9.80;5.83;;;;;;;;;;4993729;28;20193;-73
2022/05/15 06:29:32;;;;;;;11.47;5.87;;;;;;;;;;4990645;28;20300;-73
2022/05/15 06:31:59;;;;;;;7.27;5.40;;;;;;;;;;4980460;28;20214;-73
2022/05/15 06:34:25;;;;;;;7.10;4.90;;;;;;;;;;4965830;28;20274;-73
2022/05/15 06:36:50;;;;;;;9.23;6.03;;;;;;;;;;4984820;28;20193;-73
2022/05/15 06:39:16;;;;;;;10.37;5.93;;;;;;;;;;4992332;28;20625;-73
2022/05/15 06:41:42;;;;;;;12.60;6.67;;;;;;;;;;4989018;28;20679;-73
2022/05/15 06:44:08;;;;;;;6.53;4.93;;;;;;;;;;4961957;28;20240;-73
2022/05/15 06:46:34;;;;;;;9.53;5.70;;;;;;;;;;4989826;28;20198;-73
2022/05/15 06:49:00;;;;;;;6.70;4.90;;;;;;;;;;4982637;28;20190;-73
2022/05/15 06:51:26;;;;;;;7.07;5.13;;;;;;;;;;4993266;28;20210;-74
2022/05/15 06:53:52;;;;;;;10.87;7.03;;;;;;;;;;4973232;28;20310;-73
2022/05/15 06:59:03;;;;;;;10.97;5.90;;;;;;;;;;4980117;28;20670;-72
2022/05/15 07:01:29;;;;;;;15.80;5.53;;;;;;;;;;4988882;28;20223;-72
2022/05/15 07:03:55;;;;;;;11.27;5.17;;;;;;;;;;4966940;28;20245;-72
2022/05/15 07:06:21;;;;;;;9.17;5.27;;;;;;;;;;4990690;28;20200;-72
2022/05/15 07:08:48;;;;;;;10.57;5.23;;;;;;;;;;4987454;28;20206;-72
2022/05/15 07:11:14;;;;;;;9.33;4.77;;;;;;;;;;4985470;28;21983;-71
2022/05/15 07:13:40;;;;;;;10.43;4.80;;;;;;;;;;4985141;28;20190;-72
2022/05/15 07:16:06;;;;;;;7.75;4.50;;;;;;;;;;4985731;28;20189;-72
2022/05/15 07:18:32;;;;;;;13.48;4.82;;;;;;;;;;4985402;28;20545;-72
2022/05/15 07:20:58;;;;;;;8.70;4.97;;;;;;;;;;4986793;28;20232;-71
2022/05/15 07:23:26;;;;;;;8.13;4.35;;;;;;;;;;4990381;28;20647;-72
2022/05/15 07:25:53;;;;;;;8.27;4.43;;;;;;;;;;4990149;28;21023;-73
2022/05/15 07:28:19;;;;;;;7.78;4.40;;;;;;;;;;4987346;28;20188;-72
2022/05/15 07:30:45;;;;;;;10.88;4.63;;;;;;;;;;4983500;28;20196;-73
2022/05/15 07:33:11;;;;;;;6.35;4.00;;;;;;;;;;4981303;28;20559;-72
2022/05/15 07:35:37;;;;;;;6.72;4.00;;;;;;;;;;4990941;28;20659;-73
2022/05/15 07:38:03;;;;;;;10.65;4.70;;;;;;;;;;4982024;28;20190;-72
2022/05/15 07:40:29;;;;;;;8.60;4.65;;;;;;;;;;4991322;28;20197;-73
2022/05/15 07:42:55;;;;;;;7.57;4.30;;;;;;;;;;4984535;28;20192;-72
2022/05/15 07:45:21;;;;;;;8.07;4.78;;;;;;;;;;4976613;28;20193;-73
2022/05/15 07:47:47;;;;;;;8.75;5.07;;;;;;;;;;4986488;28;20205;-73
2022/05/15 07:50:13;;;;;;;10.57;4.50;;;;;;;;;;4983422;28;20190;-72
2022/05/15 07:52:39;;;;;;;12.85;5.05;;;;;;;;;;4983989;28;20205;-71
2022/05/15 07:55:08;;;;;;;11.18;4.57;;;;;;;;;;4986357;28;20193;-72
2022/05/15 07:57:34;;;;;;;8.60;4.70;;;;;;;;;;4973872;28;20189;-76
2022/05/15 08:00:03;;;;;;;21.38;5.45;;;;;;;;;;4985086;28;20193;-74
2022/05/15 08:02:29;;;;;;;11.53;4.83;;;;;;;;;;4980871;28;20178;-75
2022/05/15 08:10:24;;;;;;;10.83;5.50;;;;;;;;;;4981557;28;20323;-73
2022/05/15 08:12:50;;;;;;;10.83;5.20;;;;;;;;;;4986969;28;20210;-74
2022/05/15 08:15:17;;;;;;;12.73;4.93;;;;;;;;;;4974815;28;21080;-74
2022/05/15 08:17:43;;;;;;;12.60;5.00;;;;;;;;;;4989023;28;20221;-74
2022/05/15 08:25:40;;;;;;;7.97;4.38;;;;;;;;;;4992137;28;20239;-74
2022/05/15 08:28:06;;;;;;;12.43;4.75;;;;;;;;;;4972784;28;20200;-74
2022/05/15 08:30:32;;;;;;;9.35;4.05;;;;;;;;;;4990322;28;20200;-74
2022/05/15 08:32:57;;;;;;;7.78;4.00;;;;;;;;;;4989782;28;20217;-75
2022/05/15 08:35:23;;;;;;;7.18;4.20;;;;;;;;;;4989431;28;20182;-70
2022/05/15 08:37:50;;;;;;;7.75;3.72;;;;;;;;;;4989409;28;20236;-70
2022/05/15 08:40:25;;;;;;;7.93;3.92;;;;;;;;;;4981843;28;20176;-71
2022/05/15 08:42:56;;;;;;;9.00;4.28;;;;;;;;;;4982569;28;21920;-70
2022/05/15 08:45:23;;;;;;;8.15;4.15;;;;;;;;;;4988298;28;20177;-71
2022/05/15 08:47:49;;;;;;;6.82;3.22;;;;;;;;;;4986348;28;20635;-72
2022/05/15 08:50:16;;;;;;;8.13;4.05;;;;;;;;;;4987457;28;20253;-72
2022/05/15 08:53:02;;;;;;;8.60;3.90;;;;;;;;;;4982805;28;20201;-71
2022/05/15 08:55:48;;;;;;;9.13;3.80;;;;;;;;;;4993821;28;20933;-73
2022/05/15 08:58:16;;;;;;;7.32;4.15;;;;;;;;;;4987435;28;20659;-73
2022/05/15 09:00:52;;;;;;;6.75;3.55;;;;;;;;;;4977262;28;21319;-74
2022/05/15 09:03:20;;;;;;;7.97;3.40;;;;;;;;;;4979233;28;20575;-73
2022/05/15 09:05:56;;;;;;;11.80;4.10;;;;;;;;;;4978432;28;20194;-74
2022/05/15 09:08:22;;;;;;;8.20;4.30;;;;;;;;;;4981672;28;20662;-73
2022/05/15 09:10:48;;;;;;;13.55;3.92;;;;;;;;;;4982590;28;20201;-74
2022/05/15 09:13:22;;;;;;;9.45;4.05;;;;;;;;;;4982645;28;20209;-74
2022/05/15 09:15:58;;;;;;;8.20;3.72;;;;;;;;;;4982897;28;20193;-75
2022/05/15 09:18:24;;;;;;;6.88;3.50;;;;;;;;;;4997682;28;20217;-75
2022/05/15 09:20:54;;;;;;;6.85;3.35;;;;;;;;;;4987043;28;20280;-75
2022/05/15 09:23:29;;;;;;;6.18;3.55;;;;;;;;;;4980012;28;20190;-74
2022/05/15 09:26:02;;;;;;;7.22;3.13;;;;;;;;;;4977654;28;20188;-74
2022/05/15 09:28:28;;;;;;;8.98;3.63;;;;;;;;;;4997284;28;20185;-74
2022/05/15 09:30:59;;;;;;;8.25;3.45;;;;;;;;;;4986084;28;20200;-75
2022/05/15 09:33:36;;;;;;;7.32;3.85;;;;;;;;;;4993913;28;20759;-74
2022/05/15 09:36:18;;;;;;;5.45;3.25;;;;;;;;;;4990098;28;20181;-74
2022/05/15 09:38:44;;;;;;;6.85;3.20;;;;;;;;;;4988859;28;20856;-75
2022/05/15 09:44:05;;;;;;;6.97;3.58;;;;;;;;;;4987252;28;20840;-73
2022/05/15 09:46:31;;;;;;;9.32;3.72;;;;;;;;;;4996917;28;20193;-74
2022/05/15 09:48:57;;;;;;;6.45;3.50;;;;;;;;;;4992480;28;20177;-74
2022/05/15 09:51:26;;;;;;;6.55;3.08;;;;;;;;;;4994577;28;20192;-75
2022/05/15 09:53:52;;;;;;;9.38;3.38;;;;;;;;;;4996045;28;20187;-75
2022/05/15 09:56:25;;;;;;;7.45;3.30;;;;;;;;;;4975859;28;20387;-75
2022/05/15 09:58:51;;;;;;;8.05;3.95;;;;;;;;;;4985836;28;20221;-74
2022/05/15 10:01:28;;;;;;;6.78;3.13;;;;;;;;;;4981392;28;20271;-75
2022/05/15 10:03:56;;;;;;;6.75;3.50;;;;;;;;;;4985005;28;20233;-73
2022/05/15 10:06:23;;;;;;;8.60;3.85;;;;;;;;;;4973469;28;20179;-74
2022/05/15 10:09:05;;;;;;;7.45;3.45;;;;;;;;;;4980692;28;20196;-73
2022/05/15 10:11:31;;;;;;;8.68;3.50;;;;;;;;;;4983544;28;20226;-75
2022/05/15 10:13:57;;;;;;;8.65;3.72;;;;;;;;;;4985315;28;20604;-74
2022/05/15 10:16:32;;;;;;;6.40;3.38;;;;;;;;;;4977183;28;20270;-74
2022/05/15 10:19:12;;;;;;;8.30;3.13;;;;;;;;;;4979712;28;20181;-75
2022/05/15 10:21:42;;;;;;;6.07;3.35;;;;;;;;;;4985261;28;20912;-75
2022/05/15 10:24:13;;;;;;;8.57;3.28;;;;;;;;;;4982983;28;20190;-74
2022/05/15 10:26:42;;;;;;;6.28;3.30;;;;;;;;;;4989273;28;20290;-74
2022/05/15 10:29:14;;;;;;;9.82;2.85;;;;;;;;;;4981273;28;20605;-75
2022/05/15 10:31:43;;;;;;;8.77;3.03;;;;;;;;;;4977582;28;20695;-74
2022/05/15 10:34:13;;;;;;;6.65;3.10;;;;;;;;;;4963401;28;21205;-75
2022/05/15 10:36:45;;;;;;;6.05;3.08;;;;;;;;;;4973528;28;20186;-74
2022/05/15 10:39:11;;;;;;;7.95;3.35;;;;;;;;;;4978532;28;20885;-75
2022/05/15 10:41:59;;;;;;;6.25;3.20;;;;;;;;;;4985780;28;20292;-74
2022/05/15 10:44:29;;;;;;;7.57;2.88;;;;;;;;;;4988657;28;20939;-75
2022/05/15 10:46:59;;;;;;;6.72;3.20;;;;;;;;;;4975613;28;20662;-75
2022/05/15 10:49:44;;;;;;;7.20;3.20;;;;;;;;;;4986305;28;20239;-75
2022/05/15 10:52:13;;;;;;;6.82;2.92;;;;;;;;;;4989123;28;20228;-75
2022/05/15 10:57:45;;;;;;;5.25;2.97;;;;;;;;;;4981022;28;20394;-75
2022/05/15 11:00:13;;;;;;;5.05;2.95;;;;;;;;;;4978969;28;20279;-74
2022/05/15 11:02:47;;;;;;;4.40;2.92;;;;;;;;;;4983673;28;20642;-74
2022/05/15 11:05:16;;;;;;;6.07;2.65;;;;;;;;;;4974556;28;20590;-75
2022/05/15 11:07:43;;;;;;;6.25;2.90;;;;;;;;;;4980695;28;20194;-74
2022/05/15 11:10:09;;;;;;;8.55;2.92;;;;;;;;;;4977033;28;20204;-74
2022/05/15 11:12:37;;;;;;;7.63;2.70;;;;;;;;;;4984816;28;20791;-75
2022/05/15 11:15:21;;;;;;;7.47;2.88;;;;;;;;;;4979967;28;20619;-75
2022/05/15 11:17:55;;;;;;;5.55;2.40;;;;;;;;;;4973028;28;20252;-75
2022/05/15 11:20:23;;;;;;;6.88;2.55;;;;;;;;;;4980383;28;20285;-75
2022/05/15 11:22:50;;;;;;;6.28;2.88;;;;;;;;;;4981076;28;20187;-75
2022/05/15 11:25:37;;;;;;;5.90;2.70;;;;;;;;;;4980000;28;20730;-76
2022/05/15 11:28:07;;;;;;;6.30;2.40;;;;;;;;;;4982004;28;20632;-75
2022/05/15 11:30:38;;;;;;;6.05;2.75;;;;;;;;;;4983097;28;20271;-75
2022/05/15 11:33:06;;;;;;;4.43;2.78;;;;;;;;;;4980684;28;20209;-74
2022/05/15 11:35:34;;;;;;;4.60;2.60;;;;;;;;;;4975773;28;20182;-75
2022/05/15 11:38:02;;;;;;;8.60;3.00;;;;;;;;;;4976629;28;20189;-75
2022/05/15 11:40:48;;;;;;;6.72;2.90;;;;;;;;;;4980480;28;20718;-75
2022/05/15 11:43:29;;;;;;;8.30;2.60;;;;;;;;;;4975969;28;20555;-75
2022/05/15 11:46:08;;;;;;;5.85;2.60;;;;;;;;;;4984350;28;20198;-75
2022/05/15 11:48:50;;;;;;;5.55;2.55;;;;;;;;;;4980899;28;21167;-74
2022/05/15 11:51:16;;;;;;;4.38;2.67;;;;;;;;;;4977461;28;20632;-75
2022/05/15 11:53:54;;;;;;;7.30;2.50;;;;;;;;;;4979065;28;20185;-75
2022/05/15 11:56:23;;;;;;;3.13;2.22;;;;;;;;;;4973616;28;20189;-74
2022/05/15 11:58:54;;;;;;;4.32;2.63;;;;;;;;;;4962838;28;20185;-74
2022/05/15 12:01:32;;;;;;;5.85;2.50;;;;;;;;;;4970267;28;20604;-74
2022/05/15 12:03:58;;;;;;;4.90;2.70;;;;;;;;;;4981000;28;20336;-74
2022/05/15 12:06:29;;;;;;;10.30;2.63;;;;;;;;;;4989217;28;20243;-75
2022/05/15 12:09:14;;;;;;;4.88;2.22;;;;;;;;;;4981580;28;20221;-74
2022/05/15 12:11:39;;;;;;;5.18;2.38;;;;;;;;;;4976753;28;20240;-74
2022/05/15 12:14:25;;;;;;;2.85;2.13;;;;;;;;;;4967583;28;20264;-76
2022/05/15 12:16:53;;;;;;;5.90;2.75;;;;;;;;;;4980089;28;20190;-78
2022/05/15 12:19:28;;;;;;;8.52;2.80;;;;;;;;;;4984045;28;20197;-75
2022/05/15 12:21:54;;;;;;;16.27;3.30;;;;;;;;;;4976762;28;20216;-76
2022/05/15 12:24:27;;;;;;;7.95;2.60;;;;;;;;;;4978201;28;20929;-74
2022/05/15 12:27:06;;;;;;;7.95;3.17;;;;;;;;;;4983452;28;20182;-76
2022/05/15 12:29:48;;;;;;;5.53;2.50;;;;;;;;;;4981563;28;20576;-76
2022/05/15 12:32:17;;;;;;;6.70;2.70;;;;;;;;;;4968015;28;20749;-76
2022/05/15 12:34:46;;;;;;;4.70;2.38;;;;;;;;;;4983877;28;20752;-76
2022/05/15 12:37:12;;;;;;;4.35;2.63;;;;;;;;;;4982564;28;20212;-75
2022/05/15 12:39:42;;;;;;;4.95;2.30;;;;;;;;;;4986966;28;20194;-75
2022/05/15 12:42:09;;;;;;;5.88;2.60;;;;;;;;;;4976741;28;20277;-75
2022/05/15 12:44:36;;;;;;;3.95;2.17;;;;;;;;;;4957082;28;20637;-75
2022/05/15 12:47:03;;;;;;;4.15;2.35;;;;;;;;;;4958307;28;20849;-76
2022/05/15 12:49:33;;;;;;;4.95;2.65;;;;;;;;;;4975359;28;20697;-75
2022/05/15 12:52:09;;;;;;;3.95;2.60;;;;;;;;;;4973398;28;20264;-74
2022/05/15 12:54:34;;;;;;;5.53;2.55;;;;;;;;;;4970908;28;20186;-75
2022/05/15 12:57:01;;;;;;;5.55;2.58;;;;;;;;;;4978651;28;20320;-73
2022/05/15 12:59:27;;;;;;;8.10;2.40;;;;;;;;;;4980652;28;20190;-75
2022/05/15 13:01:53;;;;;;;4.97;2.50;;;;;;;;;;4975727;28;20282;-74
2022/05/15 13:04:20;;;;;;;6.05;2.45;;;;;;;;;;4973990;28;20908;-75
2022/05/15 13:06:52;;;;;;;3.88;2.58;;;;;;;;;;4976355;28;20193;-74
2022/05/15 13:09:25;;;;;;;6.85;2.25;;;;;;;;;;4962981;28;20217;-75
2022/05/15 13:11:52;;;;;;;4.43;2.30;;;;;;;;;;4959383;28;20776;-74
2022/05/15 13:14:19;;;;;;;9.50;2.63;;;;;;;;;;4963802;28;20194;-75
2022/05/15 13:16:46;;;;;;;9.02;2.97;;;;;;;;;;4964775;28;20209;-76
2022/05/15 13:19:14;;;;;;;3.88;1.98;;;;;;;;;;4973121;28;20183;-76
2022/05/15 13:21:40;;;;;;;5.72;2.38;;;;;;;;;;4980004;28;20184;-76
2022/05/15 13:24:07;;;;;;;6.43;2.63;;;;;;;;;;4979308;28;20228;-76
2022/05/15 13:26:38;;;;;;;5.93;2.75;;;;;;;;;;4983149;28;20189;-76
2022/05/15 13:29:05;;;;;;;3.40;2.13;;;;;;;;;;4980123;28;20170;-75
2022/05/15 13:31:31;;;;;;;3.75;2.35;;;;;;;;;;4982031;28;20547;-76
2022/05/15 13:33:57;;;;;;;4.63;2.35;;;;;;;;;;4983228;28;20186;-75
2022/05/15 13:36:23;;;;;;;7.03;2.70;;;;;;;;;;4972947;28;20178;-75
2022/05/15 13:44:19;;;;;;;4.30;2.45;;;;;;;;;;4968862;28;20193;-76
2022/05/15 13:47:01;;;;;;;4.68;2.22;;;;;;;;;;4973635;28;20571;-75
2022/05/15 13:49:56;;;;;;;5.03;2.50;;;;;;;;;;4976708;28;20178;-74
2022/05/15 13:52:37;;;;;;;5.38;2.65;;;;;;;;;;4977913;28;20774;-74
2022/05/15 13:55:10;;;;;;;5.53;2.55;;;;;;;;;;4970066;28;20182;-75
2022/05/15 13:57:57;;;;;;;8.05;2.83;;;;;;;;;;4975608;28;20186;-75
2022/05/15 14:00:32;;;;;;;4.85;2.53;;;;;;;;;;4981965;28;20631;-75
2022/05/15 14:02:59;;;;;;;4.78;2.50;;;;;;;;;;4974668;28;20190;-75
2022/05/15 14:05:25;;;;;;;5.85;2.60;;;;;;;;;;4973545;28;20241;-75
2022/05/15 14:07:51;;;;;;;8.02;3.42;;;;;;;;;;4970842;28;20259;-75
2022/05/15 14:10:17;;;;;;;5.07;2.92;;;;;;;;;;4976080;28;20197;-75
2022/05/15 14:12:55;;;;;;;3.97;2.58;;;;;;;;;;4977983;28;20944;-75
2022/05/15 14:15:41;;;;;;;4.93;2.72;;;;;;;;;;4977741;28;20558;-75
2022/05/15 14:18:09;;;;;;;5.47;2.50;;;;;;;;;;4975197;28;20199;-75
2022/05/15 14:20:36;;;;;;;7.05;2.67;;;;;;;;;;4973025;28;20405;-75
2022/05/15 14:23:02;;;;;;;6.88;2.63;;;;;;;;;;4986499;28;20182;-75
2022/05/15 14:25:28;;;;;;;8.32;3.17;;;;;;;;;;4982879;28;20201;-76
2022/05/15 14:27:54;;;;;;;5.85;2.70;;;;;;;;;;4983829;28;20890;-76
2022/05/15 14:30:20;;;;;;;6.13;2.90;;;;;;;;;;4970864;28;21194;-76
2022/05/15 14:32:55;;;;;;;3.88;2.70;;;;;;;;;;4951947;28;20719;-76
2022/05/15 14:35:22;;;;;;;2.55;2.22;;;;;;;;;;4962206;28;20558;-75
2022/05/15 14:37:48;;;;;;;5.63;2.90;;;;;;;;;;4971677;28;20181;-76
2022/05/15 14:40:13;;;;;;;4.90;2.45;;;;;;;;;;4978650;28;20201;-76
2022/05/15 14:42:39;;;;;;;5.45;2.88;;;;;;;;;;4973468;28;20201;-76
2022/05/15 14:45:06;;;;;;;5.57;2.50;;;;;;;;;;4966823;28;20476;-76
2022/05/15 14:47:33;;;;;;;6.82;3.03;;;;;;;;;;4966305;28;20507;-76
2022/05/15 14:49:58;;;;;;;7.82;2.50;;;;;;;;;;4971834;28;20292;-76
2022/05/15 14:52:25;;;;;;;9.15;2.75;;;;;;;;;;4971343;28;20218;-76
2022/05/15 14:54:51;;;;;;;5.70;2.70;;;;;;;;;;4972712;28;20179;-76
2022/05/15 14:57:19;;;;;;;5.63;2.50;;;;;;;;;;4980178;28;20793;-76
2022/05/15 14:59:45;;;;;;;6.45;2.65;;;;;;;;;;4981395;28;20193;-76
2022/05/15 15:02:11;;;;;;;4.95;2.72;;;;;;;;;;4987144;28;20194;-76
2022/05/15 15:04:38;;;;;;;7.95;3.05;;;;;;;;;;4967994;28;20320;-75
2022/05/15 15:07:04;;;;;;;5.75;2.80;;;;;;;;;;4970380;28;20218;-76
2022/05/15 15:09:33;;;;;;;4.00;2.53;;;;;;;;;;4980504;28;21502;-76
2022/05/15 15:11:59;;;;;;;3.78;2.55;;;;;;;;;;4983317;28;20255;-76
2022/05/15 15:14:25;;;;;;;5.18;2.90;;;;;;;;;;4973601;28;20201;-76